Terminal Aerodrome Forecast
Issued by NWS Memphis, TN

Home | Current Version | Previous Version | Text Only | Print | Product List | Glossary On
Versions: 1 2 3 4 5 6 7 8 9 10 11 12 13 14 15 16 17 18 19 20 21 22 23 24 25 26 27 28
000
FTUS44 KMEG 260526
TAFMKL
TAF
KMKL 260526Z 2606/2706 17007KT P6SM SCT015 BKN250
      TEMPO 2606/2609 BKN015
     FM260900 18010KT P6SM VCTS SCT015CB OVC040
      TEMPO 2610/2613 3SM TSRA BR OVC015CB
     FM261300 19012G18KT 5SM -RA BR OVC015
     FM261600 18012G18KT P6SM OVC025
     FM262000 19012G18KT P6SM BKN035
     FM270000 18005KT P6SM SCT050=

USA.gov is the U.S. government's official web portal to all federal, state and local government web resources and services.